createdAt,value
2019-05-25T00:00:55.898Z,98524.83
2019-05-25T00:03:24.368Z,98524.12
2019-05-25T00:05:52.891Z,98522.91
2019-05-25T00:08:21.382Z,98523.33
2019-05-25T00:10:49.893Z,98518.08
2019-05-25T00:13:18.555Z,98516.02
2019-05-25T00:15:47.086Z,98515.80
2019-05-25T00:18:15.649Z,98520.28
2019-05-25T00:20:44.196Z,98513.64
2019-05-25T00:23:12.714Z,98516.99
2019-05-25T00:25:41.209Z,98509.72
2019-05-25T00:28:09.698Z,98510.48
2019-05-25T00:30:38.309Z,98521.25
2019-05-25T00:33:06.799Z,98512.00
2019-05-25T00:35:35.305Z,98512.64
2019-05-25T00:38:03.819Z,98509.13
2019-05-25T00:40:32.338Z,98510.98
2019-05-25T00:43:01.055Z,98507.62
2019-05-25T00:45:29.578Z,98510.06
2019-05-25T00:47:58.124Z,98510.04
2019-05-25T00:50:38.463Z,98509.34
2019-05-25T00:53:07.016Z,98509.61
2019-05-25T00:55:35.537Z,98505.90
2019-05-25T00:58:04.317Z,98508.99
2019-05-25T01:00:32.830Z,98505.05
2019-05-25T01:03:01.312Z,98507.41
2019-05-25T01:05:31.282Z,98505.16
2019-05-25T01:07:59.768Z,98504.66
2019-05-25T01:10:28.264Z,98517.44
2019-05-25T01:12:56.782Z,98509.54
2019-05-25T01:15:25.566Z,98503.84
2019-05-25T01:17:54.044Z,98504.16
2019-05-25T01:20:23.187Z,98505.23
2019-05-25T01:22:51.677Z,98506.05
2019-05-25T01:25:20.207Z,98510.39
2019-05-25T01:27:48.792Z,98511.16
2019-05-25T01:30:21.871Z,98511.05
2019-05-25T01:32:49.731Z,98507.79
2019-05-25T01:35:18.281Z,98509.77
2019-05-25T01:37:48.647Z,98503.29
2019-05-25T01:40:17.854Z,98501.31
2019-05-25T01:42:46.345Z,98500.05
2019-05-25T01:45:15.262Z,98503.91
2019-05-25T01:47:43.979Z,98501.03
2019-05-25T01:50:14.012Z,98494.31
2019-05-25T01:52:42.625Z,98493.50
2019-05-25T01:55:11.487Z,98494.19
2019-05-25T01:57:39.974Z,98500.97
2019-05-25T02:00:09.661Z,98494.88
2019-05-25T02:02:38.211Z,98496.98
2019-05-25T02:05:08.289Z,98490.36
2019-05-25T02:07:36.987Z,98487.09
2019-05-25T02:10:08.257Z,98489.23
2019-05-25T02:12:36.848Z,98490.41
2019-05-25T02:15:08.400Z,98491.45
2019-05-25T02:17:37.415Z,98491.91
2019-05-25T02:20:07.748Z,98498.19
2019-05-25T02:22:36.285Z,98491.39
2019-05-25T02:25:17.105Z,98497.53
2019-05-25T02:27:37.682Z,98492.09
2019-05-25T02:30:07.792Z,98498.11
2019-05-25T02:32:36.379Z,98495.39
2019-05-25T02:35:06.457Z,98499.86
2019-05-25T02:37:35.107Z,98495.06
2019-05-25T02:40:07.660Z,98510.40
2019-05-25T02:42:36.212Z,98512.13
2019-05-25T02:45:06.826Z,98514.73
2019-05-25T02:47:35.375Z,98521.20
2019-05-25T02:50:07.869Z,98515.11
2019-05-25T02:52:36.433Z,98513.72
2019-05-25T02:55:06.739Z,98520.30
2019-05-25T02:57:35.306Z,98518.16
2019-05-25T03:00:05.579Z,98519.35
2019-05-25T03:02:34.208Z,98524.06
2019-05-25T03:05:03.022Z,98525.12
2019-05-25T03:07:32.200Z,98526.83
2019-05-25T03:10:01.631Z,98523.02
2019-05-25T03:12:31.194Z,98525.82
2019-05-25T03:14:59.740Z,98525.02
2019-05-25T03:17:28.356Z,98531.52
2019-05-25T03:19:56.968Z,98533.10
2019-05-25T03:22:25.949Z,98534.77
2019-05-25T03:24:54.477Z,98535.02
2019-05-25T03:27:22.979Z,98535.34
2019-05-25T03:29:51.460Z,98538.77
2019-05-25T03:32:20.155Z,98537.50
2019-05-25T03:34:48.653Z,98541.72
2019-05-25T03:37:17.340Z,98540.13
2019-05-25T03:39:46.038Z,98541.72
2019-05-25T03:42:14.543Z,98548.13
2019-05-25T03:44:43.146Z,98550.19
2019-05-25T03:47:11.668Z,98552.97
2019-05-25T03:49:40.579Z,98544.00
2019-05-25T03:52:09.188Z,98551.94
2019-05-25T03:54:37.812Z,98552.47
2019-05-25T03:57:06.304Z,98554.67
2019-05-25T03:59:34.777Z,98546.11
2019-05-25T04:02:03.283Z,98552.45
2019-05-25T04:04:31.757Z,98549.92
2019-05-25T04:07:00.232Z,98557.14
2019-05-25T04:09:28.996Z,98557.13
2019-05-25T04:11:57.469Z,98558.25
2019-05-25T04:14:26.327Z,98561.89
2019-05-25T04:16:54.914Z,98559.92
2019-05-25T04:19:23.438Z,98557.34
2019-05-25T04:21:52.111Z,98557.50
2019-05-25T04:24:20.679Z,98564.30
2019-05-25T04:26:49.502Z,98560.36
2019-05-25T04:29:18.043Z,98557.75
2019-05-25T04:31:46.772Z,98567.43
2019-05-25T04:34:15.443Z,98566.52
2019-05-25T04:36:44.018Z,98569.55
2019-05-25T04:39:12.527Z,98571.97
2019-05-25T04:41:41.022Z,98569.63
2019-05-25T04:44:09.670Z,98572.80
2019-05-25T04:46:38.193Z,98575.33
2019-05-25T04:49:06.768Z,98579.62
2019-05-25T04:51:35.277Z,98582.35
2019-05-25T04:54:03.957Z,98585.40
2019-05-25T04:56:39.253Z,98588.70
2019-05-25T04:59:02.749Z,98595.12
2019-05-25T05:01:31.438Z,98592.02
2019-05-25T05:04:00.047Z,98592.34
2019-05-25T05:06:28.529Z,98591.05
2019-05-25T05:08:57.055Z,98591.49
2019-05-25T05:11:25.609Z,98595.23
2019-05-25T05:13:54.172Z,98594.30
2019-05-25T05:16:22.636Z,98596.09
2019-05-25T05:18:51.211Z,98597.87
2019-05-25T05:21:19.758Z,98596.86
2019-05-25T05:23:48.349Z,98592.73
2019-05-25T05:26:16.912Z,98601.48
2019-05-25T05:28:49.074Z,98599.56
2019-05-25T05:31:23.558Z,98605.13
2019-05-25T05:33:46.000Z,98599.90
2019-05-25T05:36:16.191Z,98611.34
2019-05-25T05:38:46.513Z,98604.50
2019-05-25T05:41:17.529Z,98612.73
2019-05-25T05:43:47.896Z,98611.09
2019-05-25T05:46:19.759Z,98611.11
2019-05-25T05:48:51.536Z,98610.98
2019-05-25T05:51:22.743Z,98614.42
2019-05-25T05:53:55.481Z,98619.51
2019-05-25T05:56:24.122Z,98611.98
2019-05-25T05:58:52.914Z,98618.62
2019-05-25T06:01:21.505Z,98622.83
2019-05-25T06:03:50.203Z,98615.66
2019-05-25T06:06:18.738Z,98616.84
2019-05-25T06:08:47.251Z,98621.02
2019-05-25T06:11:15.914Z,98624.52
2019-05-25T06:13:44.437Z,98627.50
2019-05-25T06:16:13.177Z,98626.83
2019-05-25T06:18:41.888Z,98624.44
2019-05-25T06:21:10.377Z,98627.28
2019-05-25T06:23:38.913Z,98631.67
2019-05-25T06:26:07.432Z,98625.86
2019-05-25T06:28:35.969Z,98627.77
2019-05-25T06:31:04.559Z,98627.70
2019-05-25T06:33:33.163Z,98632.81
2019-05-25T06:36:01.700Z,98628.55
2019-05-25T06:38:30.423Z,98639.13
2019-05-25T06:40:58.957Z,98640.27
2019-05-25T06:43:27.574Z,98640.47
2019-05-25T06:45:56.117Z,98640.55
2019-05-25T06:48:24.714Z,98645.08
2019-05-25T06:50:53.257Z,98645.12
2019-05-25T06:53:21.782Z,98640.59
2019-05-25T06:55:50.375Z,98645.95
2019-05-25T06:58:18.853Z,98647.80
2019-05-25T07:00:47.485Z,98652.04
2019-05-25T07:03:16.065Z,98651.75
2019-05-25T07:05:44.705Z,98651.52
2019-05-25T07:08:13.234Z,98648.34
2019-05-25T07:10:41.934Z,98654.99
2019-05-25T07:13:10.433Z,98651.80
2019-05-25T07:15:40.629Z,98656.83
2019-05-25T07:18:09.325Z,98654.97
2019-05-25T07:20:37.937Z,98658.13
2019-05-25T07:23:06.417Z,98660.80
2019-05-25T07:25:35.069Z,98660.28
2019-05-25T07:28:03.636Z,98661.05
2019-05-25T07:30:32.455Z,98666.63
2019-05-25T07:33:00.924Z,98662.63
2019-05-25T07:35:29.715Z,98672.19
2019-05-25T07:37:58.424Z,98673.50
2019-05-25T07:40:27.008Z,98674.80
2019-05-25T07:42:55.569Z,98679.92
2019-05-25T07:45:24.408Z,98672.92
2019-05-25T07:47:53.207Z,98680.61
2019-05-25T07:50:21.866Z,98678.61
2019-05-25T07:52:50.475Z,98679.71
2019-05-25T07:55:19.067Z,98682.86
2019-05-25T07:57:48.005Z,98688.86
2019-05-25T08:00:17.255Z,98689.30
2019-05-25T08:02:45.767Z,98699.86
2019-05-25T08:05:14.794Z,98701.59
2019-05-25T08:07:43.383Z,98697.55
2019-05-25T08:10:13.634Z,98693.14
2019-05-25T08:12:42.294Z,98699.30
2019-05-25T08:15:11.144Z,98695.25
2019-05-25T08:17:39.636Z,98701.24
2019-05-25T08:20:09.043Z,98707.23
2019-05-25T08:22:37.617Z,98712.63
2019-05-25T08:25:08.185Z,98712.56
2019-05-25T08:27:36.714Z,98718.73
2019-05-25T08:30:07.306Z,98714.59
2019-05-25T08:32:35.792Z,98717.23
2019-05-25T08:35:06.509Z,98709.41
2019-05-25T08:37:34.993Z,98719.28
2019-05-25T08:40:04.851Z,98714.36
2019-05-25T08:42:33.336Z,98706.10
2019-05-25T08:45:01.813Z,98712.97
2019-05-25T08:47:30.310Z,98712.77
2019-05-25T08:49:58.781Z,98716.55
2019-05-25T08:52:27.276Z,98716.50
2019-05-25T08:54:56.633Z,98716.53
2019-05-25T08:57:25.391Z,98717.48
2019-05-25T08:59:53.924Z,98712.87
2019-05-25T09:02:22.429Z,98725.75
2019-05-25T09:04:50.901Z,98718.09
2019-05-25T09:07:19.392Z,98711.79
2019-05-25T09:09:47.873Z,98713.65
2019-05-25T09:12:16.375Z,98711.91
2019-05-25T09:14:44.847Z,98714.33
2019-05-25T09:17:13.341Z,98713.63
2019-05-25T09:19:41.814Z,98714.91
2019-05-25T09:22:10.314Z,98716.15
2019-05-25T09:24:38.790Z,98718.05
2019-05-25T09:27:07.281Z,98712.59
2019-05-25T09:29:35.756Z,98715.70
2019-05-25T09:32:07.027Z,98722.45
2019-05-25T09:34:34.469Z,98716.31
2019-05-25T09:37:02.968Z,98719.36
2019-05-25T09:39:31.436Z,98724.40
2019-05-25T09:41:59.942Z,98720.28
2019-05-25T09:44:28.411Z,98719.20
2019-05-25T09:46:56.907Z,98718.48
2019-05-25T09:49:25.373Z,98719.59
2019-05-25T09:51:53.865Z,98712.38
2019-05-25T09:54:22.336Z,98721.43
2019-05-25T09:56:50.828Z,98715.47
2019-05-25T09:59:20.588Z,98715.78
2019-05-25T10:01:49.171Z,98719.39
2019-05-25T10:04:17.730Z,98717.90
2019-05-25T10:06:46.197Z,98714.07
2019-05-25T10:09:14.770Z,98717.75
2019-05-25T10:11:43.243Z,98720.07
2019-05-25T10:14:11.742Z,98720.08
2019-05-25T10:16:40.206Z,98715.14
2019-05-25T10:19:08.772Z,98716.12
2019-05-25T10:21:37.314Z,98713.74
2019-05-25T10:24:06.483Z,98718.02
2019-05-25T10:26:34.954Z,98717.28
2019-05-25T10:29:03.456Z,98715.39
2019-05-25T10:31:31.933Z,98708.48
2019-05-25T10:34:00.427Z,98714.53
2019-05-25T10:36:28.975Z,98704.55
2019-05-25T10:38:57.513Z,98703.70
2019-05-25T10:41:25.990Z,98709.52
2019-05-25T10:43:54.482Z,98709.73
2019-05-25T10:46:22.962Z,98710.16
2019-05-25T10:48:51.462Z,98710.34
2019-05-25T10:51:19.941Z,98711.69
2019-05-25T10:53:48.438Z,98702.66
2019-05-25T10:56:16.913Z,98704.00
2019-05-25T10:58:45.409Z,98700.49
2019-05-25T11:01:13.939Z,98692.70
2019-05-25T11:03:42.433Z,98694.14
2019-05-25T11:06:10.900Z,98694.38
2019-05-25T11:08:39.396Z,98687.83
2019-05-25T11:11:07.925Z,98691.16
2019-05-25T11:13:36.420Z,98690.01
2019-05-25T11:16:04.896Z,98687.22
2019-05-25T11:18:33.437Z,98684.02
2019-05-25T11:21:01.860Z,98681.81
2019-05-25T11:23:30.356Z,98680.63
2019-05-25T11:25:58.808Z,98687.19
2019-05-25T11:28:27.314Z,98670.41
2019-05-25T11:30:55.797Z,98675.23
2019-05-25T11:33:24.295Z,98671.58
2019-05-25T11:35:52.770Z,98672.53
2019-05-25T11:38:21.245Z,98671.31
2019-05-25T11:40:49.741Z,98675.83
2019-05-25T11:43:18.212Z,98668.68
2019-05-25T11:45:46.705Z,98673.34
2019-05-25T11:48:15.177Z,98674.30
2019-05-25T11:50:43.667Z,98680.77
2019-05-25T11:53:12.148Z,98687.28
2019-05-25T11:55:40.638Z,98672.20
2019-05-25T11:58:09.111Z,98681.94
2019-05-25T12:00:37.665Z,98682.11
2019-05-25T12:03:06.223Z,98687.25
2019-05-25T12:05:34.710Z,98681.83
2019-05-25T12:08:03.179Z,98689.69
2019-05-25T12:10:31.667Z,98694.05
2019-05-25T12:13:00.138Z,98694.55
2019-05-25T12:15:28.694Z,98691.73
2019-05-25T12:17:57.164Z,98688.45
2019-05-25T12:20:25.659Z,98692.28
2019-05-25T12:22:54.147Z,98694.66
2019-05-25T12:25:22.704Z,98686.64
2019-05-25T12:27:51.176Z,98684.59
2019-05-25T12:30:20.202Z,98690.09
2019-05-25T12:32:48.661Z,98690.05
2019-05-25T12:35:19.098Z,98692.22
2019-05-25T12:37:47.592Z,98691.93
2019-05-25T12:40:16.818Z,98692.07
2019-05-25T12:42:46.031Z,98684.73
2019-05-25T12:45:15.235Z,98690.84
2019-05-25T12:47:43.705Z,98690.26
2019-05-25T12:50:12.944Z,98686.04
2019-05-25T12:52:41.414Z,98688.25
2019-05-25T12:55:10.392Z,98689.59
2019-05-25T12:57:38.899Z,98689.16
2019-05-25T13:00:15.455Z,98697.34
2019-05-25T13:02:38.217Z,98688.16
2019-05-25T13:07:34.348Z,98691.53
2019-05-25T13:10:02.910Z,98691.18
2019-05-25T13:12:31.378Z,98685.55
2019-05-25T13:14:59.878Z,98683.81
2019-05-25T13:17:28.343Z,98690.48
2019-05-25T13:19:56.838Z,98682.79
2019-05-25T13:22:25.299Z,98677.05
2019-05-25T13:24:53.806Z,98678.17
2019-05-25T13:27:22.276Z,98672.78
2019-05-25T13:29:51.661Z,98676.30
2019-05-25T13:32:20.138Z,98678.72
2019-05-25T13:34:49.114Z,98673.66
2019-05-25T13:37:17.930Z,98678.20
2019-05-25T13:39:46.462Z,98675.31
2019-05-25T13:42:14.956Z,98677.25
2019-05-25T13:44:43.438Z,98683.21
2019-05-25T13:47:11.937Z,98688.11
2019-05-25T13:49:40.404Z,98689.02
2019-05-25T13:52:08.900Z,98692.74
2019-05-25T13:54:37.371Z,98686.36
2019-05-25T13:57:05.863Z,98693.58
2019-05-25T13:59:34.336Z,98686.87
2019-05-25T14:02:02.828Z,98692.15
2019-05-25T14:04:31.301Z,98682.86
2019-05-25T14:06:59.810Z,98688.05
2019-05-25T14:09:28.351Z,98684.38
2019-05-25T14:11:56.849Z,98686.44
2019-05-25T14:14:25.464Z,98695.78
2019-05-25T14:16:53.961Z,98680.20
2019-05-25T14:19:22.432Z,98678.32
2019-05-25T14:21:50.967Z,98688.94
2019-05-25T14:24:19.501Z,98689.53
2019-05-25T14:26:47.987Z,98688.45
2019-05-25T14:29:16.529Z,98688.11
2019-05-25T14:31:46.341Z,98685.81
2019-05-25T14:34:14.962Z,98686.45
2019-05-25T14:36:43.443Z,98686.84
2019-05-25T14:39:11.924Z,98678.41
2019-05-25T14:41:40.418Z,98681.89
2019-05-25T14:44:08.885Z,98676.02
2019-05-25T14:46:37.383Z,98674.03
2019-05-25T14:49:05.917Z,98676.75
2019-05-25T14:51:34.410Z,98689.09
2019-05-25T14:54:02.884Z,98681.70
2019-05-25T14:56:31.384Z,98661.91
2019-05-25T14:58:59.870Z,98670.88
2019-05-25T15:01:28.506Z,98669.28
2019-05-25T15:03:57.077Z,98669.05
2019-05-25T15:06:25.568Z,98656.27
2019-05-25T15:08:54.050Z,98660.95
2019-05-25T15:11:22.550Z,98664.28
2019-05-25T15:13:51.034Z,98659.97
2019-05-25T15:16:19.526Z,98657.28
2019-05-25T15:18:48.007Z,98658.39
2019-05-25T15:21:16.563Z,98658.32
2019-05-25T15:23:45.055Z,98669.93
2019-05-25T15:26:13.520Z,98660.44
2019-05-25T15:28:42.018Z,98659.83
2019-05-25T15:31:10.490Z,98654.34
2019-05-25T15:33:38.988Z,98658.77
2019-05-25T15:36:07.454Z,98659.47
2019-05-25T15:38:35.952Z,98653.25
2019-05-25T15:41:04.495Z,98657.95
2019-05-25T15:43:33.161Z,98654.20
2019-05-25T15:46:01.679Z,98655.36
2019-05-25T15:48:30.306Z,98658.41
2019-05-25T15:50:58.776Z,98652.23
2019-05-25T15:53:27.260Z,98657.74
2019-05-25T15:55:55.741Z,98648.91
2019-05-25T15:58:24.232Z,98649.23
2019-05-25T16:00:52.768Z,98650.81
2019-05-25T16:03:21.536Z,98652.54
2019-05-25T16:05:50.178Z,98656.80
2019-05-25T16:08:20.016Z,98657.75
2019-05-25T16:10:48.703Z,98655.89
2019-05-25T16:13:17.486Z,98659.22
2019-05-25T16:15:46.028Z,98664.45
2019-05-25T16:18:14.537Z,98661.43
2019-05-25T16:20:43.196Z,98661.75
2019-05-25T16:23:11.715Z,98660.13
2019-05-25T16:25:40.258Z,98660.00
2019-05-25T16:28:08.749Z,98660.42
2019-05-25T16:30:37.221Z,98659.82
2019-05-25T16:33:12.453Z,98657.16
2019-05-25T16:35:35.988Z,98658.86
2019-05-25T16:38:04.808Z,98670.11
2019-05-25T16:40:33.328Z,98666.80
2019-05-25T16:43:01.883Z,98665.20
2019-05-25T16:45:30.421Z,98663.86
2019-05-25T16:47:58.895Z,98659.54
2019-05-25T16:50:27.375Z,98656.66
2019-05-25T16:52:55.878Z,98660.52
2019-05-25T16:55:24.366Z,98663.70
2019-05-25T16:57:52.887Z,98665.20
2019-05-25T17:00:30.590Z,98668.45
2019-05-25T17:02:59.620Z,98663.82
2019-05-25T17:05:28.432Z,98675.14
2019-05-25T17:07:57.333Z,98662.83
2019-05-25T17:10:25.937Z,98663.16
2019-05-25T17:12:54.489Z,98670.00
2019-05-25T17:15:23.024Z,98659.09
2019-05-25T17:17:51.868Z,98660.56
2019-05-25T17:20:20.892Z,98662.95
2019-05-25T17:22:49.359Z,98658.81
2019-05-25T17:25:18.049Z,98651.52
2019-05-25T17:27:46.512Z,98660.48
2019-05-25T17:30:15.647Z,98653.64
2019-05-25T17:32:44.254Z,98655.91
2019-05-25T17:35:14.332Z,98656.24
2019-05-25T17:37:42.856Z,98653.52
2019-05-25T17:40:12.407Z,98648.77
2019-05-25T17:42:40.925Z,98661.66
2019-05-25T17:45:09.812Z,98651.84
2019-05-25T17:47:38.345Z,98655.12
2019-05-25T17:50:08.171Z,98655.83
2019-05-25T17:52:36.645Z,98656.38
2019-05-25T17:55:07.053Z,98657.59
2019-05-25T17:57:35.536Z,98659.75
2019-05-25T18:00:07.281Z,98662.63
2019-05-25T18:02:35.756Z,98654.36
2019-05-25T18:05:06.898Z,98660.29
2019-05-25T18:07:35.541Z,98653.81
2019-05-25T18:10:06.570Z,98652.58
2019-05-25T18:12:35.047Z,98653.51
2019-05-25T18:15:05.278Z,98649.86
2019-05-25T18:17:33.750Z,98653.89
2019-05-25T18:20:02.259Z,98653.40
2019-05-25T18:22:30.727Z,98661.20
2019-05-25T18:24:59.226Z,98662.87
2019-05-25T18:27:27.716Z,98661.38
2019-05-25T18:29:56.276Z,98666.56
2019-05-25T18:32:24.780Z,98668.18
2019-05-25T18:34:53.279Z,98671.40
2019-05-25T18:37:21.753Z,98671.11
2019-05-25T18:39:50.265Z,98673.81
2019-05-25T18:42:18.739Z,98681.00
2019-05-25T18:44:47.311Z,98677.80
2019-05-25T18:47:15.777Z,98677.80
2019-05-25T18:49:44.279Z,98686.23
2019-05-25T18:52:12.751Z,98685.16
2019-05-25T18:54:41.218Z,98685.16
2019-05-25T18:57:09.877Z,98689.09
2019-05-25T18:59:38.312Z,98691.16
2019-05-25T19:02:06.819Z,98697.44
2019-05-25T19:04:45.101Z,98703.96
2019-05-25T19:07:05.598Z,98707.88
2019-05-25T19:09:34.173Z,98715.73
2019-05-25T19:12:02.685Z,98710.67
2019-05-25T19:14:31.163Z,98707.70
2019-05-25T19:16:59.659Z,98705.55
2019-05-25T19:19:28.135Z,98703.58
2019-05-25T19:21:56.634Z,98709.41
2019-05-25T19:24:25.105Z,98710.58
2019-05-25T19:26:53.800Z,98705.87
2019-05-25T19:29:22.295Z,98714.66
2019-05-25T19:31:50.795Z,98720.47
2019-05-25T19:34:19.270Z,98728.89
2019-05-25T19:36:47.773Z,98725.84
2019-05-25T19:39:16.322Z,98723.98
2019-05-25T19:41:44.783Z,98735.55
2019-05-25T19:44:13.246Z,98731.77
2019-05-25T19:46:41.738Z,98733.58
2019-05-25T19:49:10.220Z,98740.69
2019-05-25T19:51:38.731Z,98743.06
2019-05-25T19:54:07.277Z,98740.75
2019-05-25T19:56:35.778Z,98744.92
2019-05-25T19:59:04.401Z,98746.88
2019-05-25T20:01:32.918Z,98745.25
2019-05-25T20:04:01.389Z,98741.41
2019-05-25T20:06:29.878Z,98747.81
2019-05-25T20:08:58.369Z,98743.34
2019-05-25T20:11:26.850Z,98746.16
2019-05-25T20:13:55.325Z,98749.83
2019-05-25T20:16:25.119Z,98744.09
2019-05-25T20:18:53.769Z,98753.80
2019-05-25T20:21:22.270Z,98751.95
2019-05-25T20:23:50.758Z,98747.86
2019-05-25T20:26:19.262Z,98752.19
2019-05-25T20:28:50.701Z,98758.59
2019-05-25T20:31:18.008Z,98760.82
2019-05-25T20:33:46.554Z,98761.27
2019-05-25T20:36:15.028Z,98760.59
2019-05-25T20:38:43.534Z,98757.33
2019-05-25T20:41:12.002Z,98762.64
2019-05-25T20:43:40.495Z,98765.78
2019-05-25T20:46:08.971Z,98771.69
2019-05-25T20:48:37.478Z,98769.97
2019-05-25T20:51:06.022Z,98775.51
2019-05-25T20:53:34.522Z,98774.14
2019-05-25T20:56:03.004Z,98781.00
2019-05-25T20:58:31.500Z,98783.02
2019-05-25T21:00:59.977Z,98789.92
2019-05-25T21:03:28.490Z,98796.50
2019-05-25T21:05:56.969Z,98799.58
2019-05-25T21:08:25.474Z,98799.30
2019-05-25T21:10:53.952Z,98796.00
2019-05-25T21:13:22.457Z,98794.25
2019-05-25T21:15:50.930Z,98799.77
2019-05-25T21:18:19.433Z,98809.70
2019-05-25T21:20:47.906Z,98808.58
2019-05-25T21:23:16.404Z,98819.06
2019-05-25T21:25:45.426Z,98820.91
2019-05-25T21:28:13.950Z,98824.32
2019-05-25T21:30:42.431Z,98827.05
2019-05-25T21:33:10.945Z,98831.39
2019-05-25T21:35:39.420Z,98828.30
2019-05-25T21:38:07.986Z,98833.88
2019-05-25T21:40:36.475Z,98841.53
2019-05-25T21:43:05.120Z,98835.20
2019-05-25T21:45:33.601Z,98840.05
2019-05-25T21:48:02.119Z,98841.06
2019-05-25T21:50:30.594Z,98840.50
2019-05-25T21:52:59.102Z,98846.75
2019-05-25T21:55:27.619Z,98845.08
2019-05-25T21:57:56.115Z,98850.13
2019-05-25T22:00:27.976Z,98854.34
2019-05-25T22:02:56.547Z,98853.64
2019-05-25T22:05:25.090Z,98858.14
2019-05-25T22:07:53.585Z,98854.94
2019-05-25T22:10:22.270Z,98863.62
2019-05-25T22:12:50.767Z,98861.06
2019-05-25T22:15:19.311Z,98859.47
2019-05-25T22:17:47.822Z,98858.00
2019-05-25T22:20:16.438Z,98851.72
2019-05-25T22:22:45.196Z,98855.95
2019-05-25T22:25:15.306Z,98855.89
2019-05-25T22:27:43.780Z,98853.63
2019-05-25T22:30:12.720Z,98861.05
2019-05-25T22:32:41.203Z,98852.59
2019-05-25T22:35:09.842Z,98856.40
2019-05-25T22:37:38.338Z,98857.58
2019-05-25T22:40:10.004Z,98855.95
2019-05-25T22:42:38.491Z,98853.75
2019-05-25T22:45:08.132Z,98854.11
2019-05-25T22:47:36.600Z,98853.47
2019-05-25T22:50:06.845Z,98853.89
2019-05-25T22:52:35.322Z,98858.10
2019-05-25T22:55:04.950Z,98853.58
2019-05-25T22:57:33.432Z,98851.81
2019-05-25T23:00:02.033Z,98849.46
2019-05-25T23:02:30.622Z,98844.80
2019-05-25T23:04:59.108Z,98854.09
2019-05-25T23:07:27.577Z,98854.52
2019-05-25T23:09:56.100Z,98849.11
2019-05-25T23:12:24.580Z,98851.31
2019-05-25T23:14:53.088Z,98851.95
2019-05-25T23:17:21.565Z,98850.84
2019-05-25T23:19:50.065Z,98846.46
2019-05-25T23:22:18.538Z,98844.26
2019-05-25T23:24:47.040Z,98840.66
2019-05-25T23:27:16.280Z,98841.92
2019-05-25T23:29:44.802Z,98845.57
2019-05-25T23:32:13.282Z,98847.22
2019-05-25T23:34:41.778Z,98843.41
2019-05-25T23:37:14.837Z,98847.27
2019-05-25T23:39:40.464Z,98851.30
2019-05-25T23:42:08.979Z,98841.83
2019-05-25T23:44:37.494Z,98843.80
2019-05-25T23:47:05.983Z,98833.45
2019-05-25T23:49:34.491Z,98839.17
2019-05-25T23:52:02.962Z,98840.93
2019-05-25T23:54:31.460Z,98841.73
2019-05-25T23:56:59.934Z,98846.23
2019-05-25T23:59:28.410Z,98848.45
